< < Back
Terminal Aerodrome Forecast


Current Version              Previous Versions:   1  2  3  4  5  6  7  8  9  

Terminal Aerodrome Forecast

190
FTUS44 KBMX 220500
TAFANB
TAF
KANB 220534Z 2206/2306 06006KT P6SM OVC012
     FM220730 06006KT 6SM BR OVC009=

Latest METAR

584
SAUS70 KWBC 222100 RRB
MTRANB
METAR KANB 222053Z AUTO 07008KT 4SM -RA BR OVC009 10/08 A2985 RMK AO2
RAB26 CIG 005V012 SLP110 P0009 60009 T01000083 56019


USA.gov is the U.S. government's official web portal to all federal, state and local government web resources and services.